Aviation Digital Data Service (ADDS)

Output produced by TAFs form (1103 UTC 28 August 2014)
found at http://aviationweather.gov/adds/tafs/
 
KASE 281031Z 2811/2906 VRB03KT P6SM -RA BKN023 OVC035 
     TEMPO 2811/2815 P6SM NSW SCT025 BKN040 
     FM281500 02003KT P6SM VCSH SCT050 BKN070 
     FM281900 36006KT P6SM SCT070 BKN090 
     FM290200 20005KT P6SM SCT090